Lakenan, Missouri
Current Conditions -  °F | °C
As of 4:55 AM on Saturday 22 Nov 2014 (Local Time) from KIRK Reporting Station
Haze Haze  
Wind Chill: 44°   Ceiling: 500
Heat Index: 48°   Visibility: 6mi
Dew Point: 46°   Wind: 9mph
Humidity: 93%   Direction: 200°SSW
Pressure: 30"   Gusts: NA
Location:  39.7104°N, 92.0292°W
Report Text: KIRK 221055Z AUTO 20008KT 6SM BR OVC005 09/08 A3000 RMK AO2 SLP167 T00890078
Loading
Personal Weather Stations






























Interactive Weather Map New forecast layout! Learn more

10-Day Weather Forecast

Advertisements
Track Severe Weather on mobile